createdAt,value
2022-09-11T00:02:21.905Z,97573.38
2022-09-11T00:04:49.374Z,97566.91
2022-09-11T00:07:16.875Z,97565.84
2022-09-11T00:09:44.315Z,97568.75
2022-09-11T00:12:12.664Z,97565.53
2022-09-11T00:14:40.853Z,97561.75
2022-09-11T00:17:08.475Z,97561.19
2022-09-11T00:19:36.480Z,97563.06
2022-09-11T00:22:04.034Z,97559.28
2022-09-11T00:24:31.500Z,97559.81
2022-09-11T00:26:58.943Z,97569.19
2022-09-11T00:29:26.810Z,97559.00
2022-09-11T00:31:54.907Z,97559.59
2022-09-11T00:34:22.331Z,97563.34
2022-09-11T00:36:50.390Z,97562.53
2022-09-11T00:39:18.351Z,97557.97
2022-09-11T00:41:46.473Z,97570.59
2022-09-11T00:44:16.066Z,97563.06
2022-09-11T00:46:48.844Z,97569.97
2022-09-11T00:49:30.683Z,97567.28
2022-09-11T00:52:23.203Z,97566.97
2022-09-11T00:54:57.724Z,97565.91
2022-09-11T00:57:29.033Z,97571.00
2022-09-11T00:59:59.053Z,97567.78
2022-09-11T01:02:28.505Z,97561.06
2022-09-11T01:04:58.282Z,97563.69
2022-09-11T01:07:29.294Z,97559.94
2022-09-11T01:09:57.423Z,97552.41
2022-09-11T01:12:37.064Z,97551.28
2022-09-11T01:15:14.203Z,97560.38
2022-09-11T01:17:55.990Z,97559.53
2022-09-11T01:20:39.063Z,97554.13
2022-09-11T01:23:08.093Z,97551.22
2022-09-11T01:25:38.742Z,97552.22
2022-09-11T01:28:15.845Z,97548.75
2022-09-11T01:30:50.985Z,97549.28
2022-09-11T01:33:28.522Z,97549.88
2022-09-11T01:36:06.083Z,97554.41
2022-09-11T01:39:04.292Z,97552.78
2022-09-11T01:41:40.570Z,97553.28
2022-09-11T01:44:18.249Z,97550.63
2022-09-11T01:46:50.113Z,97551.66
2022-09-11T01:49:42.452Z,97554.84
2022-09-11T01:52:15.760Z,97559.69
2022-09-11T01:54:51.342Z,97556.72
2022-09-11T01:57:32.977Z,97565.06
2022-09-11T02:00:02.503Z,97560.78
2022-09-11T02:02:36.403Z,97557.78
2022-09-11T02:05:38.623Z,97562.38
2022-09-11T02:08:26.365Z,97557.59
2022-09-11T02:11:07.292Z,97558.66
2022-09-11T02:14:04.529Z,97564.25
2022-09-11T02:16:58.323Z,97556.72
2022-09-11T02:19:29.709Z,97559.09
2022-09-11T02:21:58.703Z,97557.44
2022-09-11T02:24:27.558Z,97558.00
2022-09-11T02:27:01.666Z,97557.91
2022-09-11T02:29:31.803Z,97560.34
2022-09-11T02:32:01.453Z,97558.50
2022-09-11T02:34:34.261Z,97559.00
2022-09-11T02:37:27.451Z,97555.69
2022-09-11T02:40:04.032Z,97562.97
2022-09-11T02:42:54.409Z,97555.47
2022-09-11T02:45:35.747Z,97557.88
2022-09-11T02:48:32.451Z,97555.69
2022-09-11T02:51:24.192Z,97555.19
2022-09-11T02:54:11.153Z,97558.88
2022-09-11T02:56:45.251Z,97551.13
2022-09-11T02:59:20.472Z,97551.13
2022-09-11T03:01:53.641Z,97547.66
2022-09-11T03:04:24.828Z,97546.06
2022-09-11T03:06:54.552Z,97549.53
2022-09-11T03:09:22.902Z,97549.75
2022-09-11T03:11:55.401Z,97553.72
2022-09-11T03:14:23.343Z,97556.91
2022-09-11T03:16:51.418Z,97554.78
2022-09-11T03:19:20.211Z,97554.47
2022-09-11T03:21:47.618Z,97557.34
2022-09-11T03:24:17.292Z,97553.81
2022-09-11T03:26:46.575Z,97558.34
2022-09-11T03:29:17.452Z,97558.84
2022-09-11T03:31:44.951Z,97566.09
2022-09-11T03:34:13.129Z,97561.03
2022-09-11T03:36:41.522Z,97569.25
2022-09-11T03:39:09.121Z,97581.28
2022-09-11T03:41:37.428Z,97572.38
2022-09-11T03:44:05.765Z,97573.44
2022-09-11T03:46:33.229Z,97580.66
2022-09-11T03:49:00.931Z,97591.38
2022-09-11T03:51:31.391Z,97583.84
2022-09-11T03:54:01.597Z,97586.75
2022-09-11T03:56:30.761Z,97588.63
2022-09-11T03:59:02.730Z,97590.50
2022-09-11T04:01:31.373Z,97595.28
2022-09-11T04:03:58.930Z,97592.59
2022-09-11T04:06:35.158Z,97598.94
2022-09-11T04:09:04.758Z,97588.50
2022-09-11T04:11:36.779Z,97598.94
2022-09-11T04:14:08.067Z,97595.72
2022-09-11T04:16:38.498Z,97600.78
2022-09-11T04:19:06.412Z,97601.25
2022-09-11T04:21:34.975Z,97598.81
2022-09-11T04:24:02.957Z,97597.75
2022-09-11T04:26:32.717Z,97604.75
2022-09-11T04:29:22.705Z,97599.63
2022-09-11T04:31:51.594Z,97606.53
2022-09-11T04:34:19.510Z,97599.81
2022-09-11T04:36:47.091Z,97598.22
2022-09-11T04:39:20.090Z,97607.84
2022-09-11T04:41:49.361Z,97597.72
2022-09-11T04:44:17.288Z,97598.81
2022-09-11T04:46:45.533Z,97601.56
2022-09-11T04:49:14.905Z,97605.38
2022-09-11T04:51:43.991Z,97600.09
2022-09-11T04:54:16.496Z,97602.81
2022-09-11T04:56:44.910Z,97599.13
2022-09-11T04:59:22.568Z,97602.38
2022-09-11T05:02:06.527Z,97605.44
2022-09-11T05:04:38.179Z,97601.69
2022-09-11T05:07:05.969Z,97609.66
2022-09-11T05:09:33.451Z,97604.34
2022-09-11T05:12:03.263Z,97608.75
2022-09-11T05:14:33.394Z,97607.81
2022-09-11T05:17:03.496Z,97602.44
2022-09-11T05:19:33.330Z,97605.69
2022-09-11T05:22:00.970Z,97609.63
2022-09-11T05:24:29.770Z,97604.84
2022-09-11T05:26:59.321Z,97612.25
2022-09-11T05:29:32.755Z,97616.97
2022-09-11T05:32:09.998Z,97622.94
2022-09-11T05:34:37.419Z,97620.25
2022-09-11T05:37:05.586Z,97616.66
2022-09-11T05:39:40.036Z,97625.19
2022-09-11T05:42:09.230Z,97629.53
2022-09-11T05:44:40.818Z,97634.22
2022-09-11T05:47:08.409Z,97637.81
2022-09-11T05:49:35.871Z,97639.94
2022-09-11T05:52:05.092Z,97642.84
2022-09-11T05:54:35.109Z,97641.72
2022-09-11T05:57:07.824Z,97653.28
2022-09-11T05:59:38.419Z,97649.34
2022-09-11T06:02:06.458Z,97648.81
2022-09-11T06:04:43.308Z,97656.41
2022-09-11T06:07:10.949Z,97665.88
2022-09-11T06:09:41.249Z,97666.16
2022-09-11T06:12:13.005Z,97662.41
2022-09-11T06:14:44.585Z,97660.78
2022-09-11T06:17:13.155Z,97666.41
2022-09-11T06:19:40.793Z,97660.78
2022-09-11T06:22:08.390Z,97669.38
2022-09-11T06:24:40.455Z,97676.91
2022-09-11T06:27:08.868Z,97677.44
2022-09-11T06:29:39.229Z,97682.56
2022-09-11T06:32:07.358Z,97689.28
2022-09-11T06:34:34.969Z,97689.81
2022-09-11T06:37:06.790Z,97690.09
2022-09-11T06:39:34.430Z,97699.22
2022-09-11T06:42:03.059Z,97697.56
2022-09-11T06:44:35.255Z,97693.13
2022-09-11T06:47:04.138Z,97695.53
2022-09-11T06:49:33.529Z,97696.97
2022-09-11T06:52:39.389Z,97691.00
2022-09-11T06:55:33.635Z,97692.94
2022-09-11T06:58:08.989Z,97686.50
2022-09-11T07:00:36.961Z,97693.78
2022-09-11T07:03:05.095Z,97694.81
2022-09-11T07:05:33.844Z,97700.00
2022-09-11T07:08:02.715Z,97696.22
2022-09-11T07:10:33.746Z,97697.56
2022-09-11T07:13:02.655Z,97706.19
2022-09-11T07:15:32.279Z,97702.72
2022-09-11T07:18:02.277Z,97700.56
2022-09-11T07:20:31.700Z,97700.81
2022-09-11T07:22:59.337Z,97705.94
2022-09-11T07:25:29.358Z,97702.72
2022-09-11T07:27:56.969Z,97703.78
2022-09-11T07:30:24.530Z,97716.19
2022-09-11T07:32:54.658Z,97708.66
2022-09-11T07:35:22.334Z,97714.31
2022-09-11T07:37:53.027Z,97714.88
2022-09-11T07:40:25.311Z,97719.44
2022-09-11T07:42:53.470Z,97721.84
2022-09-11T07:45:22.869Z,97723.47
2022-09-11T07:47:51.490Z,97728.03
2022-09-11T07:50:19.519Z,97731.25
2022-09-11T07:52:47.046Z,97724.81
2022-09-11T07:55:15.741Z,97729.66
2022-09-11T07:57:45.710Z,97733.16
2022-09-11T08:00:16.582Z,97732.06
2022-09-11T08:02:59.078Z,97730.16
2022-09-11T08:05:34.369Z,97733.84
2022-09-11T08:08:02.124Z,97733.50
2022-09-11T08:10:30.644Z,97739.38
2022-09-11T08:13:00.294Z,97741.69
2022-09-11T08:15:35.745Z,97728.13
2022-09-11T08:18:05.910Z,97730.81
2022-09-11T08:20:33.648Z,97741.63
2022-09-11T08:23:01.921Z,97743.06
2022-09-11T08:25:29.554Z,97737.47
2022-09-11T08:27:58.148Z,97746.44
2022-09-11T08:30:27.087Z,97757.19
2022-09-11T08:32:54.545Z,97758.66
2022-09-11T08:35:22.197Z,97756.25
2022-09-11T08:37:54.588Z,97764.50
2022-09-11T08:40:22.798Z,97767.06
2022-09-11T08:42:52.904Z,97765.78
2022-09-11T08:45:24.833Z,97759.13
2022-09-11T08:47:56.076Z,97765.88
2022-09-11T08:50:33.903Z,97765.75
2022-09-11T08:53:03.915Z,97772.56
2022-09-11T08:55:41.346Z,97777.75
2022-09-11T08:58:32.324Z,97774.28
2022-09-11T09:01:33.566Z,97771.66
2022-09-11T09:04:46.130Z,97777.31
2022-09-11T09:07:27.847Z,97775.41
2022-09-11T09:10:24.398Z,97777.78
2022-09-11T09:13:16.788Z,97788.78
2022-09-11T09:16:07.570Z,97792.81
2022-09-11T09:18:42.021Z,97797.13
2022-09-11T09:21:20.738Z,97788.81
2022-09-11T09:24:01.673Z,97804.16
2022-09-11T09:26:39.996Z,97806.06
2022-09-11T09:29:19.905Z,97801.47
2022-09-11T09:31:50.453Z,97805.47
2022-09-11T09:34:21.046Z,97803.06
2022-09-11T09:37:28.106Z,97809.28
2022-09-11T09:39:57.158Z,97808.19
2022-09-11T09:42:40.936Z,97806.56
2022-09-11T09:45:10.129Z,97809.41
2022-09-11T09:47:44.613Z,97815.13
2022-09-11T09:50:19.849Z,97815.41
2022-09-11T09:52:50.189Z,97811.53
2022-09-11T09:55:19.147Z,97815.50
2022-09-11T09:57:47.468Z,97816.56
2022-09-11T10:00:18.133Z,97822.47
2022-09-11T10:02:55.234Z,97828.09
2022-09-11T10:05:42.467Z,97824.63
2022-09-11T10:08:35.581Z,97820.75
2022-09-11T10:11:14.856Z,97824.84
2022-09-11T10:13:52.403Z,97825.38
2022-09-11T10:16:23.498Z,97832.09
2022-09-11T10:18:53.152Z,97836.06
2022-09-11T10:21:29.705Z,97831.72
2022-09-11T10:24:00.208Z,97840.28
2022-09-11T10:26:35.227Z,97832.59
2022-09-11T10:29:32.516Z,97831.59
2022-09-11T10:32:02.741Z,97838.06
2022-09-11T10:34:38.656Z,97844.78
2022-09-11T10:37:13.955Z,97847.69
2022-09-11T10:39:44.558Z,97835.81
2022-09-11T10:42:22.528Z,97853.88
2022-09-11T10:44:51.622Z,97861.69
2022-09-11T10:47:29.140Z,97864.31
2022-09-11T10:50:17.876Z,97863.81
2022-09-11T10:53:10.223Z,97865.22
2022-09-11T10:55:48.732Z,97869.56
2022-09-11T10:58:24.118Z,97870.66
2022-09-11T11:00:52.026Z,97881.88
2022-09-11T11:03:28.219Z,97880.13
2022-09-11T11:06:19.555Z,97891.03
2022-09-11T11:09:25.615Z,97876.22
2022-09-11T11:12:32.736Z,97881.44
2022-09-11T11:15:19.961Z,97888.81
2022-09-11T11:18:18.945Z,97887.69
2022-09-11T11:21:13.846Z,97895.41
2022-09-11T11:24:01.536Z,97891.78
2022-09-11T11:26:50.396Z,97899.78
2022-09-11T11:29:42.004Z,97905.09
2022-09-11T11:32:33.296Z,97900.13
2022-09-11T11:35:23.746Z,97900.03
2022-09-11T11:38:01.834Z,97906.09
2022-09-11T11:40:36.852Z,97908.59
2022-09-11T11:43:12.261Z,97911.56
2022-09-11T11:46:12.449Z,97918.88
2022-09-11T11:48:56.221Z,97920.50
2022-09-11T11:51:33.691Z,97913.25
2022-09-11T11:54:17.659Z,97923.75
2022-09-11T11:56:50.397Z,97918.97
2022-09-11T11:59:32.167Z,97923.41
2022-09-11T12:02:06.138Z,97935.41
2022-09-11T12:04:45.234Z,97931.19
2022-09-11T12:07:24.344Z,97935.22
2022-09-11T12:09:54.322Z,97936.56
2022-09-11T12:12:24.945Z,97939.22
2022-09-11T12:14:56.172Z,97942.13
2022-09-11T12:17:31.161Z,97942.03
2022-09-11T12:20:13.498Z,97939.75
2022-09-11T12:22:50.485Z,97955.59
2022-09-11T12:25:23.773Z,97951.63
2022-09-11T12:28:13.095Z,97958.22
2022-09-11T12:30:56.386Z,97947.94
2022-09-11T12:33:43.636Z,97954.69
2022-09-11T12:36:17.153Z,97955.44
2022-09-11T12:39:26.630Z,97962.00
2022-09-11T12:42:14.096Z,97950.41
2022-09-11T12:44:47.460Z,97957.31
2022-09-11T12:47:24.464Z,97958.63
2022-09-11T12:50:19.213Z,97964.00
2022-09-11T12:52:51.850Z,97963.97
2022-09-11T12:55:39.866Z,97961.00
2022-09-11T12:58:19.200Z,97963.81
2022-09-11T13:00:51.100Z,97969.06
2022-09-11T13:03:25.794Z,97953.81
2022-09-11T13:05:58.954Z,97960.63
2022-09-11T13:08:30.284Z,97954.03
2022-09-11T13:11:39.751Z,97958.16
2022-09-11T13:14:38.123Z,97956.19
2022-09-11T13:17:15.654Z,97958.47
2022-09-11T13:19:43.514Z,97958.03
2022-09-11T13:22:40.225Z,97948.22
2022-09-11T13:25:18.375Z,97955.72
2022-09-11T13:27:47.905Z,97945.63
2022-09-11T13:30:17.042Z,97945.38
2022-09-11T13:32:49.115Z,97946.53
2022-09-11T13:35:23.994Z,97943.31
2022-09-11T13:38:07.735Z,97941.47
2022-09-11T13:40:55.620Z,97942.34
2022-09-11T13:43:29.987Z,97936.13
2022-09-11T13:46:11.595Z,97935.06
2022-09-11T13:48:39.359Z,97923.84
2022-09-11T13:51:14.804Z,97930.59
2022-09-11T13:53:45.589Z,97924.66
2022-09-11T13:56:41.565Z,97917.38
2022-09-11T13:59:35.250Z,97921.66
2022-09-11T14:02:08.703Z,97921.94
2022-09-11T14:04:41.745Z,97926.50
2022-09-11T14:07:24.840Z,97916.78
2022-09-11T14:10:01.629Z,97922.84
2022-09-11T14:12:29.533Z,97921.97
2022-09-11T14:15:02.509Z,97919.97
2022-09-11T14:17:30.043Z,97913.22
2022-09-11T14:20:01.782Z,97919.66
2022-09-11T14:22:32.544Z,97913.06
2022-09-11T14:25:09.854Z,97913.00
2022-09-11T14:27:41.913Z,97905.09
2022-09-11T14:30:31.482Z,97914.47
2022-09-11T14:33:21.932Z,97898.44
2022-09-11T14:35:50.542Z,97901.19
2022-09-11T14:38:21.036Z,97897.66
2022-09-11T14:41:02.265Z,97900.22
2022-09-11T14:43:33.249Z,97899.56
2022-09-11T14:46:02.350Z,97896.69
2022-09-11T14:48:32.264Z,97900.78
2022-09-11T14:51:02.313Z,97889.13
2022-09-11T14:53:32.172Z,97887.88
2022-09-11T14:56:00.971Z,97886.75
2022-09-11T14:58:29.959Z,97885.69
2022-09-11T15:00:57.781Z,97890.66
2022-09-11T15:03:25.803Z,97889.56
2022-09-11T15:05:57.902Z,97897.09
2022-09-11T15:08:26.037Z,97890.09
2022-09-11T15:10:53.862Z,97885.50
2022-09-11T15:13:22.118Z,97889.19
2022-09-11T15:15:52.096Z,97894.72
2022-09-11T15:18:19.751Z,97894.25
2022-09-11T15:20:47.235Z,97894.84
2022-09-11T15:23:16.623Z,97894.94
2022-09-11T15:25:44.083Z,97898.13
2022-09-11T15:28:11.654Z,97901.72
2022-09-11T15:30:39.538Z,97896.91
2022-09-11T15:33:07.173Z,97900.63
2022-09-11T15:35:34.582Z,97901.25
2022-09-11T15:38:04.672Z,97897.19
2022-09-11T15:40:32.692Z,97902.06
2022-09-11T15:43:00.171Z,97896.72
2022-09-11T15:45:27.758Z,97893.78
2022-09-11T15:47:55.202Z,97903.56
2022-09-11T15:50:28.441Z,97903.56
2022-09-11T15:52:56.161Z,97902.78
2022-09-11T15:55:23.619Z,97899.56
2022-09-11T15:57:51.084Z,97899.84
2022-09-11T16:00:18.642Z,97897.72
2022-09-11T16:02:46.090Z,97903.94
2022-09-11T16:05:14.652Z,97901.47
2022-09-11T16:07:42.142Z,97908.50
2022-09-11T16:10:10.308Z,97905.25
2022-09-11T16:12:38.502Z,97893.91
2022-09-11T16:15:06.558Z,97909.53
2022-09-11T16:17:34.011Z,97904.94
2022-09-11T16:20:01.491Z,97910.84
2022-09-11T16:22:31.539Z,97912.75
2022-09-11T16:24:59.483Z,97905.72
2022-09-11T16:27:27.102Z,97904.91
2022-09-11T16:30:32.613Z,97911.13
2022-09-11T16:32:42.654Z,97904.63
2022-09-11T16:35:13.502Z,97908.63
2022-09-11T16:37:41.431Z,97916.41
2022-09-11T16:40:09.921Z,97911.31
2022-09-11T16:42:37.869Z,97908.31
2022-09-11T16:45:05.901Z,97905.88
2022-09-11T16:47:33.523Z,97899.69
2022-09-11T16:50:07.473Z,97904.81
2022-09-11T16:52:35.534Z,97900.22
2022-09-11T16:55:04.025Z,97893.75
2022-09-11T16:57:32.742Z,97905.06
2022-09-11T17:00:00.248Z,97894.00
2022-09-11T17:02:27.731Z,97907.19
2022-09-11T17:04:55.231Z,97909.34
2022-09-11T17:07:23.866Z,97917.41
2022-09-11T17:09:51.351Z,97910.63
2022-09-11T17:12:18.767Z,97909.81
2022-09-11T17:14:46.173Z,97908.75
2022-09-11T17:17:13.761Z,97900.69
2022-09-11T17:19:41.908Z,97904.97
2022-09-11T17:22:10.869Z,97905.47
2022-09-11T17:24:38.917Z,97899.53
2022-09-11T17:27:06.546Z,97908.00
2022-09-11T17:29:34.181Z,97911.16
2022-09-11T17:32:26.087Z,97920.78
2022-09-11T17:34:49.408Z,97914.09
2022-09-11T17:37:17.247Z,97924.03
2022-09-11T17:39:45.004Z,97923.47
2022-09-11T17:42:13.566Z,97924.53
2022-09-11T17:44:41.599Z,97923.13
2022-09-11T17:47:09.405Z,97930.16
2022-09-11T17:49:37.159Z,97928.78
2022-09-11T17:52:04.801Z,97938.66
2022-09-11T17:54:32.270Z,97942.72
2022-09-11T17:56:59.656Z,97940.56
2022-09-11T17:59:27.560Z,97937.06
2022-09-11T18:01:55.048Z,97941.59
2022-09-11T18:04:22.638Z,97942.63
2022-09-11T18:06:51.313Z,97941.28
2022-09-11T18:09:20.027Z,97944.16
2022-09-11T18:11:49.941Z,97950.81
2022-09-11T18:14:18.930Z,97955.19
2022-09-11T18:16:47.988Z,97953.00
2022-09-11T18:19:18.101Z,97947.56
2022-09-11T18:21:49.988Z,97952.09
2022-09-11T18:24:21.000Z,97948.59
2022-09-11T18:26:59.991Z,97956.09
2022-09-11T18:29:30.207Z,97959.59
2022-09-11T18:32:00.220Z,97955.47
2022-09-11T18:34:29.071Z,97968.09
2022-09-11T18:36:56.879Z,97959.47
2022-09-11T18:39:24.666Z,97957.31
2022-09-11T18:41:55.140Z,97958.03
2022-09-11T18:44:25.350Z,97959.97
2022-09-11T18:46:54.548Z,97955.44
2022-09-11T18:49:22.361Z,97961.38
2022-09-11T18:51:50.160Z,97956.81
2022-09-11T18:54:21.228Z,97966.16
2022-09-11T18:56:50.552Z,97966.44
2022-09-11T18:59:20.340Z,97958.09
2022-09-11T19:01:48.294Z,97963.38
2022-09-11T19:04:17.098Z,97966.88
2022-09-11T19:06:45.396Z,97966.88
2022-09-11T19:09:13.558Z,97969.84
2022-09-11T19:11:41.714Z,97970.34
2022-09-11T19:14:11.520Z,97983.47
2022-09-11T19:16:39.676Z,97994.22
2022-09-11T19:19:08.235Z,98002.28
2022-09-11T19:21:37.898Z,98018.66
2022-09-11T19:24:06.894Z,98002.69
2022-09-11T19:26:38.991Z,98006.13
2022-09-11T19:29:08.954Z,98008.00
2022-09-11T19:31:39.411Z,98003.47
2022-09-11T19:34:08.158Z,98001.31
2022-09-11T19:36:36.210Z,97995.16
2022-09-11T19:39:05.711Z,97994.59
2022-09-11T19:41:37.509Z,97994.25
2022-09-11T19:44:07.808Z,97993.72
2022-09-11T19:46:38.266Z,97993.22
2022-09-11T19:49:06.850Z,97992.41
2022-09-11T19:51:43.325Z,97994.22
2022-09-11T19:54:13.159Z,98003.16
2022-09-11T19:56:42.594Z,98002.38
2022-09-11T19:59:10.371Z,98000.50
2022-09-11T20:01:38.439Z,98015.22
2022-09-11T20:04:06.324Z,98006.06
2022-09-11T20:06:35.515Z,98008.56
2022-09-11T20:09:29.706Z,98018.97
2022-09-11T20:11:52.490Z,98020.06
2022-09-11T20:14:19.938Z,98018.41
2022-09-11T20:16:47.468Z,98019.47
2022-09-11T20:19:15.239Z,98016.78
2022-09-11T20:21:43.034Z,98012.50
2022-09-11T20:24:10.555Z,98010.81
2022-09-11T20:26:38.182Z,98008.44
2022-09-11T20:29:08.734Z,98009.50
2022-09-11T20:31:47.434Z,98006.13
2022-09-11T20:34:19.889Z,98004.44
2022-09-11T20:36:48.167Z,98007.63
2022-09-11T20:39:16.110Z,98004.53
2022-09-11T20:41:44.050Z,98005.56
2022-09-11T20:44:12.340Z,97994.53
2022-09-11T20:46:40.215Z,97999.59
2022-09-11T20:49:07.750Z,97992.34
2022-09-11T20:51:35.498Z,97991.53
2022-09-11T20:54:03.107Z,97988.28
2022-09-11T20:56:31.387Z,97991.72
2022-09-11T20:58:58.949Z,97996.81
2022-09-11T21:01:32.622Z,97986.38
2022-09-11T21:04:02.206Z,97995.22
2022-09-11T21:06:31.664Z,97982.31
2022-09-11T21:09:02.248Z,97984.50
2022-09-11T21:11:30.599Z,97990.06
2022-09-11T21:13:59.529Z,97987.88
2022-09-11T21:16:27.714Z,97985.22
2022-09-11T21:18:57.393Z,97987.66
2022-09-11T21:21:26.787Z,97991.41
2022-09-11T21:23:58.573Z,97988.72
2022-09-11T21:26:28.733Z,97991.63
2022-09-11T21:29:01.696Z,97995.38
2022-09-11T21:31:30.470Z,97989.53
2022-09-11T21:33:59.031Z,97994.41
2022-09-11T21:36:27.027Z,97989.53
2022-09-11T21:38:54.554Z,97994.09
2022-09-11T21:41:22.093Z,97990.84
2022-09-11T21:43:49.766Z,97992.13
2022-09-11T21:46:17.324Z,97995.63
2022-09-11T21:48:44.846Z,97991.81
2022-09-11T21:51:15.187Z,97993.69
2022-09-11T21:53:45.464Z,97988.56
2022-09-11T21:56:22.113Z,97993.81
2022-09-11T21:58:51.333Z,98000.47
2022-09-11T22:01:20.077Z,97990.25
2022-09-11T22:03:47.946Z,97984.66
2022-09-11T22:06:16.027Z,97988.63
2022-09-11T22:08:45.237Z,97983.50
2022-09-11T22:11:14.847Z,97991.06
2022-09-11T22:13:42.505Z,97987.56
2022-09-11T22:16:13.096Z,97980.53
2022-09-11T22:18:41.158Z,97989.13
2022-09-11T22:21:10.502Z,97978.41
2022-09-11T22:23:38.429Z,97979.97
2022-09-11T22:26:17.646Z,97980.78
2022-09-11T22:28:45.594Z,97984.84
2022-09-11T22:31:17.193Z,97981.59
2022-09-11T22:33:45.393Z,97986.19
2022-09-11T22:36:19.925Z,97985.97
2022-09-11T22:38:49.240Z,97981.66
2022-09-11T22:41:17.538Z,97986.69
2022-09-11T22:43:47.650Z,97982.66
2022-09-11T22:46:16.415Z,97969.47
2022-09-11T22:48:44.107Z,97976.63
2022-09-11T22:51:32.080Z,97970.78
2022-09-11T22:53:59.646Z,97977.44
2022-09-11T22:56:27.041Z,97982.47
2022-09-11T22:58:54.740Z,97981.34
2022-09-11T23:01:22.957Z,97977.59
2022-09-11T23:03:52.152Z,97976.81
2022-09-11T23:06:39.441Z,97976.22
2022-09-11T23:09:12.990Z,97975.41
2022-09-11T23:11:45.320Z,97973.22
2022-09-11T23:14:14.494Z,97961.22
2022-09-11T23:16:42.945Z,97967.16
2022-09-11T23:19:14.206Z,97971.44
2022-09-11T23:21:42.096Z,97966.88
2022-09-11T23:24:14.732Z,97975.25
2022-09-11T23:26:43.570Z,97974.75
2022-09-11T23:29:12.440Z,97974.75
2022-09-11T23:31:41.093Z,97975.59
2022-09-11T23:34:11.156Z,97985.97
2022-09-11T23:36:38.640Z,97977.19
2022-09-11T23:39:06.361Z,97982.06
2022-09-11T23:41:34.016Z,97982.88
2022-09-11T23:44:02.596Z,97984.44
2022-09-11T23:46:30.051Z,97982.88
2022-09-11T23:48:57.942Z,97980.69
2022-09-11T23:51:26.921Z,97979.31
2022-09-11T23:53:54.306Z,97980.69
2022-09-11T23:56:22.629Z,97975.34
2022-09-11T23:58:50.730Z,97976.88
